Time;durP1;ratioP1;P1;durP2;ratioP2;P2;SDS_P1;SDS_P2;PMS_P1;PMS_P2;Temp;Humidity;BMP_temperature;BMP_pressure;BME280_temperature;BME280_humidity;BME280_pressure;Samples;Min_cycle;Max_cycle;Signal;HPM_P1;HPM_P2
2022/03/10 00:03:56;;;;;;;24.40;15.30;;;;;;;4.11;56.75;100067.77;233100;1218;139947;-61
2022/03/10 00:08:59;;;;;;;25.20;15.40;;;;;;;4.06;56.90;100074.35;233096;1221;139281;-62
2022/03/10 00:14:02;;;;;;;24.10;15.90;;;;;;;4.02;56.75;100080.57;233396;1221;139717;-62
2022/03/10 00:19:05;;;;;;;341.00;200.10;;;;;;;3.99;56.97;100086.74;233356;1219;139722;-60
2022/03/10 00:24:09;;;;;;;42.40;24.20;;;;;;;4.09;57.28;100089.56;233357;1221;139758;-61
2022/03/10 00:29:12;;;;;;;27.30;18.10;;;;;;;4.07;56.72;100086.45;233509;1221;139692;-62
2022/03/10 00:34:16;;;;;;;25.90;16.10;;;;;;;4.01;56.76;100091.83;233376;1221;139284;-61
2022/03/10 00:39:19;;;;;;;23.10;15.30;;;;;;;3.98;56.52;100096.43;233354;1221;139757;-60
2022/03/10 00:44:25;;;;;;;24.50;13.90;;;;;;;3.94;56.43;100096.68;233389;1220;139842;-61
2022/03/10 00:49:28;;;;;;;20.80;13.90;;;;;;;3.92;56.53;100105.67;233343;1221;139955;-61
2022/03/10 00:54:31;;;;;;;23.00;13.20;;;;;;;3.88;56.56;100103.98;233392;1221;140276;-61
2022/03/10 00:59:34;;;;;;;21.00;13.20;;;;;;;3.84;56.33;100110.74;233485;1221;140191;-61
2022/03/10 01:04:37;;;;;;;18.50;12.70;;;;;;;3.81;56.36;100116.58;233419;1220;140651;-61
2022/03/10 01:09:40;;;;;;;21.20;12.90;;;;;;;3.76;56.11;100122.64;233360;1221;139381;-61
2022/03/10 01:14:43;;;;;;;19.60;12.50;;;;;;;3.72;56.22;100123.23;233384;1221;140180;-60
2022/03/10 01:19:48;;;;;;;18.80;13.00;;;;;;;3.72;56.27;100121.46;233249;1221;139817;-59
2022/03/10 01:24:51;;;;;;;17.90;12.60;;;;;;;3.70;56.27;100120.45;233392;1221;140031;-61
2022/03/10 01:29:54;;;;;;;19.10;12.40;;;;;;;3.65;56.25;100114.56;233249;1221;139294;-61
2022/03/10 01:34:57;;;;;;;18.40;12.50;;;;;;;3.64;56.19;100118.79;233508;1221;140305;-61
2022/03/10 01:40:00;;;;;;;15.80;11.30;;;;;;;3.63;56.36;100124.42;232963;1220;139506;-61
2022/03/10 01:45:04;;;;;;;19.00;11.00;;;;;;;3.61;56.20;100127.44;233168;1221;138824;-61
2022/03/10 01:50:09;;;;;;;19.10;11.50;;;;;;;3.57;56.01;100128.54;233388;1220;140378;-61
2022/03/10 01:55:13;;;;;;;16.40;10.20;;;;;;;3.52;55.80;100137.05;233437;1221;141747;-61
2022/03/10 02:00:16;;;;;;;15.40;10.10;;;;;;;3.50;55.81;100138.84;233364;1221;139691;-60
2022/03/10 02:05:23;;;;;;;17.40;10.90;;;;;;;3.48;55.86;100134.65;233466;1221;139285;-60
2022/03/10 02:10:27;;;;;;;15.10;9.60;;;;;;;3.44;55.64;100138.93;233307;1221;139657;-63
2022/03/10 02:20:52;;;;;;;12.20;7.70;;;;;;;3.34;55.48;100156.27;233500;1221;139055;-61
2022/03/10 02:26:00;;;;;;;12.00;7.90;;;;;;;3.29;55.42;100164.23;233467;1221;140259;-63
2022/03/10 02:31:03;;;;;;;12.30;7.10;;;;;;;3.24;55.45;100172.89;233376;1220;139027;-62
2022/03/10 02:36:06;;;;;;;11.70;6.90;;;;;;;3.16;55.25;100183.17;233426;1221;139581;-63
2022/03/10 02:41:09;;;;;;;10.40;7.10;;;;;;;3.09;55.16;100188.86;233559;1221;140076;-62
2022/03/10 02:46:12;;;;;;;11.10;6.90;;;;;;;2.99;55.14;100197.95;233525;1220;139948;-63
2022/03/10 02:51:16;;;;;;;11.40;6.90;;;;;;;2.89;55.18;100203.86;233497;1221;139116;-59
2022/03/10 02:56:18;;;;;;;10.50;6.90;;;;;;;2.83;55.25;100216.73;233475;1220;139734;-61
2022/03/10 03:01:22;;;;;;;10.00;6.70;;;;;;;2.75;55.20;100223.83;233454;1221;139490;-61
2022/03/10 03:06:25;;;;;;;10.60;6.40;;;;;;;2.68;55.23;100231.62;233400;1221;139493;-61
2022/03/10 03:11:28;;;;;;;9.60;6.40;;;;;;;2.59;55.23;100242.21;233627;1221;139431;-62
2022/03/10 03:16:31;;;;;;;9.30;6.30;;;;;;;2.53;55.29;100253.14;233451;1220;138638;-63
2022/03/10 03:21:35;;;;;;;10.30;6.10;;;;;;;2.49;55.40;100257.20;233472;1221;138767;-62
2022/03/10 03:26:37;;;;;;;11.20;6.70;;;;;;;2.43;55.41;100258.48;233411;1221;139627;-61
2022/03/10 03:31:41;;;;;;;9.20;6.40;;;;;;;2.39;55.53;100268.85;233368;1221;139279;-64
2022/03/10 03:36:45;;;;;;;11.90;6.90;;;;;;;2.38;55.51;100276.75;233534;1221;138972;-64
2022/03/10 03:41:47;;;;;;;11.10;7.00;;;;;;;2.35;55.44;100281.31;233490;1221;139158;-64
2022/03/10 03:46:50;;;;;;;10.70;6.30;;;;;;;2.28;55.39;100284.17;233441;1221;139101;-64
2022/03/10 03:51:56;;;;;;;11.10;6.70;;;;;;;2.21;55.26;100285.46;233535;1220;139973;-63
2022/03/10 03:56:58;;;;;;;9.30;6.70;;;;;;;2.12;55.11;100295.52;233476;1220;139494;-61
2022/03/10 04:02:02;;;;;;;10.80;6.30;;;;;;;2.01;55.05;100303.64;233508;1220;140438;-63
2022/03/10 04:07:06;;;;;;;12.10;7.40;;;;;;;1.92;55.02;100318.05;233508;1220;139942;-63
2022/03/10 04:12:09;;;;;;;10.70;6.60;;;;;;;1.85;54.93;100326.14;233376;1221;139937;-66
2022/03/10 04:17:12;;;;;;;137.00;93.20;;;;;;;1.82;55.40;100335.96;233361;1221;139647;-64
2022/03/10 04:22:15;;;;;;;20.30;13.30;;;;;;;2.00;55.78;100338.29;233484;1220;139811;-65
2022/03/10 04:27:18;;;;;;;12.90;7.40;;;;;;;2.05;55.27;100350.18;233486;1221;139986;-68
2022/03/10 04:32:21;;;;;;;10.80;7.00;;;;;;;1.98;54.98;100351.97;233332;1220;139157;-66
2022/03/10 04:37:24;;;;;;;12.10;7.40;;;;;;;1.89;54.82;100357.27;233507;1220;140755;-62
2022/03/10 04:42:28;;;;;;;11.90;6.80;;;;;;;1.79;54.67;100363.27;233408;1221;139524;-64
2022/03/10 04:47:31;;;;;;;9.70;6.80;;;;;;;1.73;54.89;100368.02;233623;1220;139569;-63
2022/03/10 04:52:34;;;;;;;161.40;113.40;;;;;;;1.66;54.92;100377.33;233408;1221;138735;-63
2022/03/10 04:57:38;;;;;;;21.80;15.00;;;;;;;1.70;55.44;100387.80;233484;1220;139950;-63
2022/03/10 05:02:41;;;;;;;13.20;8.30;;;;;;;1.71;55.24;100389.89;233514;1220;142591;-64
2022/03/10 05:07:45;;;;;;;12.40;7.60;;;;;;;1.62;55.06;100395.53;233408;1220;139503;-64
2022/03/10 05:13:00;;;;;;;13.10;7.30;;;;;;;1.51;54.99;100400.64;233421;1221;139703;-64
2022/03/10 05:18:04;;;;;;;10.90;7.30;;;;;;;1.42;55.06;100416.40;233451;1221;139806;-65
2022/03/10 05:23:12;;;;;;;11.30;7.20;;;;;;;1.33;55.01;100421.49;233290;1221;138593;-64
2022/03/10 05:28:15;;;;;;;12.80;7.10;;;;;;;1.26;54.91;100431.30;233537;1221;139409;-64
2022/03/10 05:33:18;;;;;;;10.20;7.00;;;;;;;1.21;55.10;100444.26;233440;1220;139499;-62
2022/03/10 05:38:21;;;;;;;10.80;6.70;;;;;;;1.14;55.05;100459.46;233482;1220;138428;-65
2022/03/10 05:43:24;;;;;;;11.60;6.60;;;;;;;1.06;54.78;100466.98;233544;1220;139119;-63
2022/03/10 05:48:27;;;;;;;9.90;6.80;;;;;;;0.98;54.54;100465.23;233509;1220;140316;-63
2022/03/10 05:53:30;;;;;;;11.40;6.60;;;;;;;0.96;54.65;100465.23;233664;1221;140073;-63
2022/03/10 05:58:33;;;;;;;13.80;7.10;;;;;;;0.95;54.66;100471.34;233451;1220;141353;-65
2022/03/10 06:03:36;;;;;;;14.50;7.00;;;;;;;0.95;54.49;100482.52;233448;1220;139211;-64
2022/03/10 06:08:39;;;;;;;10.50;6.20;;;;;;;0.98;54.13;100488.13;233412;1220;140510;-64
2022/03/10 06:13:42;;;;;;;12.70;5.90;;;;;;;0.99;53.95;100502.29;233523;1220;139876;-63
2022/03/10 06:18:45;;;;;;;10.50;6.00;;;;;;;0.97;53.62;100509.44;233502;1220;140622;-65
2022/03/10 06:23:49;;;;;;;9.60;6.00;;;;;;;0.93;53.46;100513.45;233363;1221;139224;-64
2022/03/10 06:28:52;;;;;;;11.80;7.00;;;;;;;0.95;53.23;100528.14;233503;1220;139128;-65
2022/03/10 06:33:54;;;;;;;10.10;6.00;;;;;;;0.98;53.08;100535.48;233596;1220;139559;-64
2022/03/10 06:38:58;;;;;;;10.40;5.70;;;;;;;1.01;52.83;100539.67;233523;1220;139106;-63
2022/03/10 06:44:01;;;;;;;8.80;5.70;;;;;;;1.02;52.79;100545.10;233591;1220;140089;-64
2022/03/10 06:49:04;;;;;;;11.80;5.90;;;;;;;1.06;52.72;100550.69;233415;1218;138982;-64
2022/03/10 06:54:07;;;;;;;9.60;5.50;;;;;;;1.09;52.60;100553.50;233600;1220;139047;-65
2022/03/10 06:59:10;;;;;;;11.70;5.90;;;;;;;1.11;52.32;100567.83;233710;1219;139033;-65
2022/03/10 07:04:13;;;;;;;8.90;5.60;;;;;;;1.13;52.14;100567.48;233106;1220;139197;-65
2022/03/10 07:09:18;;;;;;;10.20;5.00;;;;;;;1.19;52.08;100570.98;233184;1221;139331;-64
2022/03/10 07:14:21;;;;;;;8.60;5.10;;;;;;;1.26;51.97;100576.05;233608;1220;140224;-63
2022/03/10 07:19:27;;;;;;;12.60;5.80;;;;;;;1.30;51.89;100580.24;233578;1220;138107;-61
2022/03/10 07:24:31;;;;;;;11.30;5.50;;;;;;;1.34;51.75;100588.65;233566;1220;139771;-63
2022/03/10 07:29:35;;;;;;;9.90;5.20;;;;;;;1.40;51.61;100594.06;233692;1220;140406;-64
2022/03/10 07:34:38;;;;;;;18.00;9.20;;;;;;;1.44;51.51;100598.10;233436;1219;139106;-61
2022/03/10 07:39:42;;;;;;;11.10;5.40;;;;;;;1.51;51.47;100594.77;233540;1220;139079;-61
2022/03/10 07:44:45;;;;;;;9.90;4.90;;;;;;;1.57;51.24;100598.27;233474;1220;139361;-64
2022/03/10 07:49:48;;;;;;;12.10;5.00;;;;;;;1.63;51.19;100601.75;233598;1220;139593;-61
2022/03/10 07:54:51;;;;;;;6.90;4.30;;;;;;;1.70;51.02;100606.82;233624;1220;140917;-61
2022/03/10 07:59:54;;;;;;;6.20;4.10;;;;;;;1.73;50.75;100611.20;233324;1221;138715;-62
2022/03/10 08:04:57;;;;;;;10.10;5.30;;;;;;;1.78;50.56;100609.63;233521;1220;139197;-62
2022/03/10 08:10:04;;;;;;;7.20;4.50;;;;;;;1.84;50.58;100612.92;233428;1220;139231;-62
2022/03/10 08:15:07;;;;;;;9.50;4.60;;;;;;;1.91;50.31;100611.52;233204;1221;139219;-62
2022/03/10 08:20:11;;;;;;;10.60;6.60;;;;;;;2.00;50.24;100614.13;233440;1220;138434;-62
2022/03/10 08:25:14;;;;;;;7.60;4.70;;;;;;;2.07;49.94;100618.86;233269;1221;139511;-63
2022/03/10 08:30:18;;;;;;;7.60;4.30;;;;;;;2.05;49.68;100621.66;233587;1220;140868;-63
2022/03/10 08:35:20;;;;;;;6.10;3.90;;;;;;;2.03;49.47;100624.11;233356;1221;139189;-62
2022/03/10 08:40:24;;;;;;;6.70;4.30;;;;;;;2.04;49.27;100621.48;233577;1221;138700;-61
2022/03/10 08:45:27;;;;;;;6.50;4.10;;;;;;;2.09;49.24;100617.80;233588;1220;139144;-61
2022/03/10 08:50:30;;;;;;;6.50;4.40;;;;;;;2.13;49.04;100624.61;233562;1221;138905;-60
2022/03/10 08:55:33;;;;;;;9.60;3.80;;;;;;;2.25;48.97;100622.84;233284;1221;139170;-61
2022/03/10 09:00:37;;;;;;;32.70;16.40;;;;;;;2.35;48.91;100623.69;233505;1221;139918;-62
2022/03/10 09:05:42;;;;;;;8.00;5.40;;;;;;;2.58;48.71;100621.68;233576;1220;139607;-63
2022/03/10 09:10:45;;;;;;;5.80;4.10;;;;;;;2.68;48.13;100628.48;233428;1218;138844;-63
2022/03/10 09:15:48;;;;;;;5.30;3.70;;;;;;;2.80;47.90;100629.11;233526;1220;141197;-62
2022/03/10 09:20:51;;;;;;;7.30;3.80;;;;;;;2.88;47.40;100629.27;233098;1222;139131;-64
2022/03/10 09:25:55;;;;;;;5.70;3.80;;;;;;;2.89;47.31;100637.48;233008;1221;139832;-63
2022/03/10 09:30:58;;;;;;;6.60;3.60;;;;;;;2.90;46.99;100639.94;233309;1220;138958;-63
2022/03/10 09:36:02;;;;;;;7.50;3.40;;;;;;;2.91;47.11;100645.37;233413;1220;139121;-63
2022/03/10 09:41:05;;;;;;;5.20;3.20;;;;;;;2.90;46.69;100644.67;232695;1220;139598;-60
2022/03/10 09:46:10;;;;;;;5.40;3.80;;;;;;;3.00;46.71;100641.45;233492;1220;139371;-64
2022/03/10 09:51:14;;;;;;;7.10;3.70;;;;;;;3.23;46.71;100638.35;233398;1220;139191;-65
2022/03/10 09:56:20;;;;;;;5.50;3.10;;;;;;;3.36;46.58;100638.26;233272;1220;139989;-65
2022/03/10 10:01:23;;;;;;;5.30;3.50;;;;;;;3.30;45.99;100644.61;233531;1220;139488;-65
2022/03/10 10:06:26;;;;;;;6.10;3.30;;;;;;;3.27;45.86;100646.56;233579;1220;139028;-65
2022/03/10 10:11:34;;;;;;;6.10;3.50;;;;;;;3.24;45.40;100656.23;233729;1220;138815;-64
2022/03/10 10:16:47;;;;;;;5.50;3.30;;;;;;;3.28;45.44;100663.73;233593;1220;142564;-65
2022/03/10 10:22:19;;;;;;;5.30;3.10;;;;;;;3.48;45.41;100667.30;233145;1220;138519;-64
2022/03/10 10:27:25;;;;;;;5.40;3.50;;;;;;;3.75;45.71;100663.92;233463;1220;139360;-64
2022/03/10 10:32:53;;;;;;;5.30;3.50;;;;;;;3.97;45.18;100665.17;233558;1218;139753;-65
2022/03/10 10:37:58;;;;;;;6.00;3.60;;;;;;;3.84;44.60;100670.02;233455;1220;139468;-64
2022/03/10 10:43:07;;;;;;;6.90;3.60;;;;;;;3.75;44.47;100666.57;233463;1220;138855;-65
2022/03/10 10:48:12;;;;;;;4.90;3.40;;;;;;;3.75;44.47;100672.02;233477;1220;138954;-64
2022/03/10 10:53:36;;;;;;;5.70;3.50;;;;;;;3.78;44.14;100672.34;233538;1220;138692;-64
2022/03/10 10:58:45;;;;;;;5.50;3.60;;;;;;;3.69;43.87;100674.52;233463;1219;139126;-64
2022/03/10 11:03:48;;;;;;;4.60;3.50;;;;;;;3.86;44.14;100661.55;233518;1220;138986;-64
2022/03/10 11:08:52;;;;;;;8.90;5.40;;;;;;;4.05;43.86;100658.41;233525;1220;138774;-62
2022/03/10 11:13:55;;;;;;;4.70;3.20;;;;;;;4.19;43.57;100663.02;233480;1220;139430;-62
2022/03/10 11:18:59;;;;;;;4.90;2.70;;;;;;;4.34;43.63;100666.73;232450;1219;138345;-62
2022/03/10 11:24:18;;;;;;;5.10;3.10;;;;;;;4.51;43.47;100668.32;233610;1220;139555;-61
2022/03/10 11:29:24;;;;;;;5.70;3.70;;;;;;;4.68;43.38;100670.40;233594;1218;139435;-62
2022/03/10 11:34:47;;;;;;;5.70;3.30;;;;;;;4.93;43.48;100657.59;233527;1220;140854;-63
2022/03/10 11:39:55;;;;;;;6.40;3.40;;;;;;;5.18;43.36;100663.26;233443;1220;139472;-61
2022/03/10 11:45:20;;;;;;;5.80;3.70;;;;;;;5.27;42.85;100667.36;233434;1220;139201;-61
2022/03/10 11:50:34;;;;;;;4.90;3.50;;;;;;;5.36;42.62;100659.66;233367;1220;138837;-61
2022/03/10 11:55:38;;;;;;;5.60;3.50;;;;;;;5.47;42.58;100661.25;233490;1220;139621;-63
2022/03/10 12:00:45;;;;;;;5.80;3.90;;;;;;;5.71;42.19;100654.38;233420;1220;138901;-63
2022/03/10 12:06:01;;;;;;;8.00;4.00;;;;;;;6.01;42.68;100657.23;233552;1220;139396;-62
2022/03/10 12:11:21;;;;;;;8.20;4.20;;;;;;;6.22;41.96;100661.82;233259;1221;139110;-62
2022/03/10 12:16:42;;;;;;;6.00;3.80;;;;;;;6.15;41.68;100659.81;233236;1221;139398;-62
2022/03/10 12:22:01;;;;;;;5.30;3.60;;;;;;;5.86;41.15;100661.52;233390;1220;139129;-62
2022/03/10 12:27:05;;;;;;;7.20;3.90;;;;;;;5.78;41.05;100658.66;233393;1220;139408;-63
2022/03/10 12:32:08;;;;;;;7.10;3.90;;;;;;;5.98;41.40;100649.73;233406;1221;139423;-63
2022/03/10 12:37:14;;;;;;;6.80;4.20;;;;;;;6.03;41.16;100658.09;233442;1220;139545;-62
2022/03/10 12:42:18;;;;;;;6.30;3.80;;;;;;;5.86;40.46;100661.16;233655;1220;140015;-63
2022/03/10 12:47:22;;;;;;;6.30;3.90;;;;;;;5.84;40.87;100660.83;233523;1221;139316;-60
2022/03/10 12:52:27;;;;;;;4.80;3.20;;;;;;;5.96;40.80;100653.09;233571;1220;139944;-62
2022/03/10 12:57:30;;;;;;;5.20;3.40;;;;;;;6.09;40.34;100660.80;233484;1221;139434;-62
2022/03/10 13:02:37;;;;;;;6.10;3.60;;;;;;;6.18;40.57;100660.29;233402;1220;139155;-62
2022/03/10 13:07:40;;;;;;;4.50;3.40;;;;;;;6.36;40.19;100654.83;233527;1220;139342;-63
2022/03/10 13:12:47;;;;;;;5.80;3.20;;;;;;;6.60;39.89;100651.91;233451;1221;138992;-63
2022/03/10 13:17:52;;;;;;;6.00;3.60;;;;;;;6.94;40.02;100643.63;233552;1221;139247;-64
2022/03/10 13:23:02;;;;;;;4.90;3.40;;;;;;;7.25;40.03;100643.50;233434;1220;138494;-63
2022/03/10 13:28:08;;;;;;;10.10;3.90;;;;;;;7.58;39.58;100636.36;233462;1220;138997;-63
2022/03/10 13:33:12;;;;;;;7.10;4.20;;;;;;;7.84;39.07;100638.20;233388;1221;138793;-63
2022/03/10 13:38:18;;;;;;;5.40;3.90;;;;;;;8.03;38.79;100632.95;233492;1221;139191;-64
2022/03/10 13:43:26;;;;;;;7.00;3.80;;;;;;;8.25;38.71;100630.58;233276;1220;138397;-63
2022/03/10 13:48:31;;;;;;;6.00;3.70;;;;;;;8.24;38.06;100629.56;233585;1220;138919;-63
2022/03/10 13:53:34;;;;;;;7.90;4.20;;;;;;;7.83;37.51;100627.98;233470;1219;139050;-64
2022/03/10 13:58:37;;;;;;;5.80;3.80;;;;;;;7.36;37.53;100630.35;233480;1220;139414;-64
2022/03/10 14:03:43;;;;;;;10.40;4.20;;;;;;;6.86;37.29;100636.73;233379;1220;139773;-63
2022/03/10 14:08:49;;;;;;;6.60;4.30;;;;;;;6.41;37.53;100629.20;233320;1220;139840;-62
2022/03/10 14:14:00;;;;;;;7.30;4.00;;;;;;;6.10;37.70;100625.54;233431;1221;139175;-63
2022/03/10 14:19:04;;;;;;;7.20;3.90;;;;;;;5.84;37.77;100636.02;233359;1221;139385;-63
2022/03/10 14:24:07;;;;;;;5.40;3.70;;;;;;;5.61;38.00;100637.97;233617;1221;139404;-65
2022/03/10 14:29:10;;;;;;;6.90;4.10;;;;;;;5.39;37.93;100638.68;233383;1221;139273;-64
2022/03/10 14:34:16;;;;;;;7.70;4.20;;;;;;;5.20;37.88;100646.69;233393;1221;141155;-63
2022/03/10 14:39:19;;;;;;;6.20;3.60;;;;;;;5.05;38.19;100641.27;233013;1222;139405;-63
2022/03/10 14:44:22;;;;;;;6.40;4.10;;;;;;;4.92;38.37;100643.02;233396;1221;138921;-64
2022/03/10 14:49:25;;;;;;;6.10;3.60;;;;;;;4.81;38.30;100642.30;233407;1221;139237;-64
2022/03/10 14:54:30;;;;;;;6.00;3.60;;;;;;;4.65;37.97;100640.91;233466;1221;139304;-64
2022/03/10 14:59:33;;;;;;;6.90;4.10;;;;;;;4.53;38.01;100640.88;233240;1220;138813;-65
2022/03/10 15:04:37;;;;;;;6.90;4.00;;;;;;;4.43;38.30;100641.86;232966;1221;139878;-64
2022/03/10 15:09:40;;;;;;;6.60;4.10;;;;;;;4.39;38.55;100645.95;232816;1220;139537;-62
2022/03/10 15:14:43;;;;;;;7.50;4.00;;;;;;;4.33;38.23;100643.02;232838;1221;140672;-63
2022/03/10 15:19:46;;;;;;;8.00;4.30;;;;;;;4.24;38.34;100636.98;232826;1221;139656;-63
2022/03/10 15:24:50;;;;;;;7.80;5.30;;;;;;;4.14;38.43;100646.73;232688;1221;139122;-62
2022/03/10 15:29:53;;;;;;;24.80;14.20;;;;;;;4.11;38.73;100645.36;232837;1221;139701;-62
2022/03/10 15:34:56;;;;;;;10.70;5.60;;;;;;;4.25;40.86;100640.98;232784;1222;139191;-63
2022/03/10 15:40:00;;;;;;;6.60;4.50;;;;;;;5.47;41.16;100651.41;232799;1222;139360;-63
2022/03/10 15:45:04;;;;;;;8.10;4.70;;;;;;;5.28;38.99;100655.54;232771;1221;138766;-62
2022/03/10 15:50:07;;;;;;;7.80;4.50;;;;;;;4.90;38.41;100655.36;232823;1221;139223;-64
2022/03/10 15:55:11;;;;;;;92.00;59.50;;;;;;;4.54;38.35;100659.13;232746;1222;139390;-64
2022/03/10 16:00:16;;;;;;;13.50;8.00;;;;;;;4.40;39.11;100662.98;232829;1221;139895;-63
2022/03/10 16:05:20;;;;;;;9.60;5.10;;;;;;;4.27;38.71;100672.44;232690;1222;139633;-62
2022/03/10 16:10:27;;;;;;;9.60;5.40;;;;;;;4.05;38.59;100684.58;232692;1222;139772;-62
2022/03/10 16:15:30;;;;;;;11.20;5.40;;;;;;;3.84;38.89;100694.76;232778;1221;140114;-60
2022/03/10 16:20:36;;;;;;;8.80;5.30;;;;;;;3.70;39.03;100693.11;232785;1221;141012;-62
2022/03/10 16:25:40;;;;;;;8.00;4.80;;;;;;;3.57;39.39;100696.17;232685;1221;140138;-62
2022/03/10 16:30:43;;;;;;;8.00;4.90;;;;;;;3.52;39.43;100702.89;232613;1221;139573;-63
2022/03/10 16:35:46;;;;;;;56.40;41.20;;;;;;;3.41;39.71;100709.45;233085;1221;138546;-63
2022/03/10 16:40:52;;;;;;;14.40;8.70;;;;;;;3.51;40.48;100713.06;233036;1221;139250;-62
2022/03/10 16:45:56;;;;;;;14.40;7.60;;;;;;;3.50;39.66;100719.40;233191;1220;139570;-65
2022/03/10 16:51:02;;;;;;;13.00;6.30;;;;;;;3.38;39.83;100720.34;232422;1221;138597;-62
2022/03/10 16:56:05;;;;;;;9.70;6.00;;;;;;;3.22;39.81;100722.52;233385;1221;138747;-63
2022/03/10 17:01:10;;;;;;;10.50;6.40;;;;;;;3.06;39.77;100728.39;233253;1221;139060;-62
2022/03/10 17:06:13;;;;;;;11.90;6.60;;;;;;;2.91;39.95;100733.01;233475;1221;139228;-63
2022/03/10 17:11:16;;;;;;;14.40;7.10;;;;;;;2.78;40.10;100736.55;233257;1221;139685;-61
2022/03/10 17:16:19;;;;;;;14.30;7.90;;;;;;;2.67;40.28;100741.15;233413;1221;139559;-62
2022/03/10 17:21:25;;;;;;;15.50;7.80;;;;;;;2.56;40.46;100746.25;233186;1221;139233;-63
2022/03/10 17:26:30;;;;;;;15.00;9.00;;;;;;;2.46;40.46;100753.44;233348;1221;139092;-62
2022/03/10 17:31:54;;;;;;;21.30;12.50;;;;;;;2.36;40.61;100759.23;232806;1220;139482;-62
2022/03/10 17:36:58;;;;;;;17.20;9.20;;;;;;;2.29;40.80;100762.92;233434;1220;139203;-62
2022/03/10 17:42:01;;;;;;;17.20;9.90;;;;;;;2.21;40.87;100769.23;233294;1221;139563;-63
2022/03/10 17:47:05;;;;;;;16.40;9.70;;;;;;;2.13;41.03;100767.30;233350;1221;139834;-63
2022/03/10 17:52:09;;;;;;;21.70;10.00;;;;;;;2.10;41.20;100771.33;233217;1220;152036;-61
2022/03/10 17:57:12;;;;;;;32.20;17.50;;;;;;;2.11;41.71;100774.65;233185;1220;139715;-62
2022/03/10 18:02:15;;;;;;;25.40;12.60;;;;;;;2.14;41.65;100772.90;233299;1220;139578;-64
2022/03/10 18:07:18;;;;;;;22.70;12.10;;;;;;;2.07;41.52;100776.23;233255;1220;139635;-61
2022/03/10 18:12:21;;;;;;;25.40;13.30;;;;;;;1.99;41.65;100780.59;233390;1220;140306;-61
2022/03/10 18:17:24;;;;;;;26.10;12.80;;;;;;;1.94;41.73;100780.93;233240;1222;138981;-62
2022/03/10 18:22:28;;;;;;;23.90;12.40;;;;;;;1.84;41.71;100783.39;233223;1222;138735;-62
2022/03/10 18:27:31;;;;;;;21.40;11.50;;;;;;;1.76;41.77;100787.03;233320;1220;139672;-62
2022/03/10 18:32:35;;;;;;;96.90;56.30;;;;;;;1.73;42.14;100791.75;233158;1222;139737;-61
2022/03/10 18:37:38;;;;;;;30.60;16.60;;;;;;;1.83;42.36;100790.89;233219;1222;139041;-62
2022/03/10 18:42:42;;;;;;;26.10;13.80;;;;;;;1.81;42.07;100792.98;233415;1220;139446;-62
2022/03/10 18:47:45;;;;;;;30.10;15.10;;;;;;;1.72;42.08;100794.38;233510;1221;139391;-65
2022/03/10 18:52:49;;;;;;;29.80;15.20;;;;;;;1.63;42.20;100798.20;233246;1221;140265;-60
2022/03/10 18:57:51;;;;;;;34.80;16.20;;;;;;;1.57;42.19;100805.88;233310;1221;140125;-61
2022/03/10 19:02:56;;;;;;;55.90;29.30;;;;;;;1.63;43.45;100814.46;233316;1220;139534;-62
2022/03/10 19:08:02;;;;;;;29.30;15.30;;;;;;;1.79;42.85;100814.52;233281;1221;139020;-61
2022/03/10 19:13:08;;;;;;;27.10;13.00;;;;;;;1.68;42.36;100814.31;233356;1220;139932;-60
2022/03/10 19:18:11;;;;;;;25.60;12.60;;;;;;;1.55;42.46;100815.84;233514;1221;139336;-61
2022/03/10 19:23:16;;;;;;;26.80;13.20;;;;;;;1.45;42.45;100822.62;233321;1220;140146;-61
2022/03/10 19:28:22;;;;;;;23.50;12.70;;;;;;;1.34;42.52;100822.58;233383;1220;139534;-60
2022/03/10 19:33:26;;;;;;;28.00;13.70;;;;;;;1.26;42.82;100825.69;233244;1221;139681;-60
2022/03/10 19:38:30;;;;;;;29.40;13.30;;;;;;;1.20;42.83;100827.94;233073;1220;139696;-61
2022/03/10 19:43:33;;;;;;;25.90;11.80;;;;;;;1.15;43.01;100827.74;233170;1220;139290;-61
2022/03/10 19:48:37;;;;;;;20.20;11.10;;;;;;;1.10;43.01;100828.59;233448;1220;139620;-61
2022/03/10 19:53:40;;;;;;;52.00;34.80;;;;;;;1.06;43.14;100826.98;233190;1222;138745;-60
2022/03/10 19:58:44;;;;;;;229.40;112.30;;;;;;;1.10;43.95;100828.23;233404;1220;138567;-60
2022/03/10 20:03:49;;;;;;;37.10;17.90;;;;;;;1.21;43.77;100828.82;233352;1220;140181;-58
2022/03/10 20:08:54;;;;;;;23.30;12.90;;;;;;;1.11;43.49;100828.07;233405;1220;139477;-59
2022/03/10 20:13:57;;;;;;;19.60;11.00;;;;;;;1.02;43.60;100825.73;233471;1220;139894;-59
2022/03/10 20:19:02;;;;;;;19.50;11.40;;;;;;;0.93;43.56;100825.52;233171;1221;140130;-59
2022/03/10 20:24:05;;;;;;;24.00;13.20;;;;;;;0.88;43.71;100825.33;233489;1220;139174;-60
2022/03/10 20:29:09;;;;;;;23.00;11.90;;;;;;;0.82;43.82;100823.88;233432;1221;139419;-59
2022/03/10 20:34:12;;;;;;;22.40;11.60;;;;;;;0.77;43.97;100825.95;233434;1218;139519;-59
2022/03/10 20:39:15;;;;;;;27.80;12.50;;;;;;;0.73;43.98;100830.29;233418;1220;139112;-60
2022/03/10 20:44:19;;;;;;;25.10;12.80;;;;;;;0.68;44.03;100827.81;233221;1220;139687;-60
2022/03/10 20:49:25;;;;;;;26.60;12.50;;;;;;;0.62;44.07;100828.29;233393;1220;139537;-60
2022/03/10 20:54:33;;;;;;;24.70;12.30;;;;;;;0.58;44.21;100829.66;233533;1220;139095;-59
2022/03/10 20:59:36;;;;;;;25.80;13.20;;;;;;;0.55;44.29;100828.06;232685;1220;139753;-58
2022/03/10 21:04:39;;;;;;;23.50;11.70;;;;;;;0.54;44.45;100828.04;233063;1220;139526;-59
2022/03/10 21:09:42;;;;;;;22.60;12.00;;;;;;;0.49;44.45;100821.38;233454;1220;139294;-59
2022/03/10 21:14:56;;;;;;;22.70;11.60;;;;;;;0.43;44.38;100832.69;233042;1222;138569;-62
2022/03/10 21:20:09;;;;;;;24.40;12.50;;;;;;;0.39;44.73;100833.00;233205;1220;139171;-59
2022/03/10 21:25:12;;;;;;;21.60;11.80;;;;;;;0.40;44.84;100835.45;233072;1222;138841;-59
2022/03/10 21:30:15;;;;;;;163.00;82.90;;;;;;;0.39;44.71;100841.20;233438;1220;139370;-62
2022/03/10 21:35:18;;;;;;;43.20;19.50;;;;;;;0.48;45.45;100839.00;233144;1220;140820;-60
2022/03/10 21:40:21;;;;;;;28.60;15.30;;;;;;;0.50;45.10;100835.36;233236;1220;139332;-58
2022/03/10 21:45:24;;;;;;;27.40;12.70;;;;;;;0.42;44.75;100834.77;233041;1220;139223;-59
2022/03/10 21:50:27;;;;;;;24.90;12.40;;;;;;;0.34;44.61;100831.39;233202;1220;141463;-59
2022/03/10 21:55:50;;;;;;;23.50;13.00;;;;;;;0.29;44.94;100837.45;233113;1220;140252;-59
2022/03/10 22:00:54;;;;;;;25.40;12.30;;;;;;;0.21;44.77;100837.04;233266;1220;140066;-58
2022/03/10 22:05:57;;;;;;;24.90;13.00;;;;;;;0.17;44.97;100840.30;233129;1221;139405;-60
2022/03/10 22:11:00;;;;;;;25.80;13.40;;;;;;;0.12;44.98;100835.21;233234;1220;139268;-59
2022/03/10 22:16:04;;;;;;;26.50;14.00;;;;;;;0.07;45.12;100834.45;233274;1220;139390;-59
2022/03/10 22:21:08;;;;;;;29.80;14.60;;;;;;;0.05;45.43;100829.03;233129;1220;139401;-58
2022/03/10 22:26:11;;;;;;;29.20;14.30;;;;;;;0.02;45.28;100829.52;232971;1221;140021;-59
2022/03/10 22:31:15;;;;;;;31.50;15.90;;;;;;;-0.03;45.41;100826.16;233104;1220;140313;-60
2022/03/10 22:36:18;;;;;;;35.10;15.60;;;;;;;-0.07;45.39;100824.02;233319;1220;140455;-59
2022/03/10 22:41:21;;;;;;;37.60;18.00;;;;;;;-0.11;45.45;100828.71;233119;1220;140006;-60
2022/03/10 22:46:24;;;;;;;37.10;16.60;;;;;;;-0.13;45.26;100830.95;233329;1220;139886;-59
2022/03/10 22:56:52;;;;;;;33.80;15.90;;;;;;;-0.18;45.36;100836.12;233407;1218;139402;-59
2022/03/10 23:01:55;;;;;;;36.60;16.50;;;;;;;-0.21;45.32;100840.44;233477;1220;140216;-60
2022/03/10 23:12:21;;;;;;;34.00;15.20;;;;;;;-0.24;45.51;100844.43;233254;1221;140233;-59
2022/03/10 23:17:24;;;;;;;33.40;15.50;;;;;;;-0.28;45.38;100847.02;233249;1221;139286;-57
2022/03/10 23:22:32;;;;;;;32.90;15.00;;;;;;;-0.31;45.45;100847.50;233423;1220;139540;-59